createdAt,value
2023-04-26T00:00:42.734Z,4.63
2023-04-26T00:03:45.006Z,3.78
2023-04-26T00:06:47.082Z,4.38
2023-04-26T00:09:49.302Z,4.03
2023-04-26T00:12:52.356Z,3.95
2023-04-26T00:15:54.165Z,3.78
2023-04-26T00:18:55.839Z,3.92
2023-04-26T00:21:57.561Z,4.55
2023-04-26T00:24:59.268Z,4.55
2023-04-26T00:28:02.361Z,3.67
2023-04-26T00:31:04.106Z,4.10
2023-04-26T00:34:05.752Z,4.22
2023-04-26T00:37:07.431Z,4.18
2023-04-26T00:40:10.206Z,4.43
2023-04-26T00:43:13.263Z,4.22
2023-04-26T00:46:14.998Z,4.78
2023-04-26T00:49:18.801Z,5.18
2023-04-26T00:55:22.865Z,4.75
2023-04-26T00:58:26.255Z,5.18
2023-04-26T01:01:28.211Z,5.03
2023-04-26T01:04:30.146Z,4.70
2023-04-26T01:07:32.113Z,5.07
2023-04-26T01:10:34.667Z,4.88
2023-04-26T01:13:38.472Z,4.43
2023-04-26T01:19:47.554Z,4.55
2023-04-26T01:22:50.624Z,4.70
2023-04-26T01:25:52.664Z,5.63
2023-04-26T01:28:54.870Z,4.60
2023-04-26T01:31:56.706Z,4.95
2023-04-26T01:34:59.505Z,5.35
2023-04-26T01:38:02.795Z,4.35
2023-04-26T01:41:04.794Z,4.68
2023-04-26T01:44:06.459Z,5.00
2023-04-26T01:47:08.290Z,4.57
2023-04-26T01:50:10.774Z,4.78
2023-04-26T01:53:14.214Z,4.50
2023-04-26T01:56:15.938Z,5.43
2023-04-26T01:59:17.656Z,4.85
2023-04-26T02:02:19.305Z,5.22
2023-04-26T02:05:21.559Z,5.22
2023-04-26T02:08:24.772Z,4.75
2023-04-26T02:11:26.545Z,4.78
2023-04-26T02:14:28.430Z,4.68
2023-04-26T02:17:30.065Z,4.85
2023-04-26T02:20:31.718Z,4.50
2023-04-26T02:23:34.833Z,6.15
2023-04-26T02:26:36.704Z,4.97
2023-04-26T02:29:44.332Z,5.05
2023-04-26T02:32:46.721Z,5.43
2023-04-26T02:35:48.434Z,4.97
2023-04-26T02:38:53.109Z,5.55
2023-04-26T02:41:55.064Z,5.82
2023-04-26T02:44:56.774Z,5.80
2023-04-26T02:47:58.507Z,5.00
2023-04-26T02:51:01.106Z,5.22
2023-04-26T02:54:06.470Z,5.03
2023-04-26T02:57:09.035Z,5.45
2023-04-26T03:00:11.778Z,4.75
2023-04-26T03:03:13.695Z,4.85
2023-04-26T03:06:15.511Z,4.57
2023-04-26T03:09:18.481Z,4.30
2023-04-26T03:12:20.386Z,4.97
2023-04-26T03:15:22.012Z,4.57
2023-04-26T03:18:23.662Z,3.92
2023-04-26T03:21:25.388Z,5.10
2023-04-26T03:24:28.397Z,4.53
2023-04-26T03:27:30.375Z,4.63
2023-04-26T03:30:32.200Z,4.93
2023-04-26T03:33:35.772Z,3.72
2023-04-26T03:36:38.139Z,4.20
2023-04-26T03:39:41.424Z,4.70
2023-04-26T03:42:43.385Z,4.93
2023-04-26T03:45:47.450Z,4.25
2023-04-26T03:48:49.330Z,4.00
2023-04-26T03:51:51.184Z,4.55
2023-04-26T03:54:54.284Z,4.13
2023-04-26T03:57:56.176Z,4.57
2023-04-26T04:00:57.882Z,5.00
2023-04-26T04:03:59.730Z,4.55
2023-04-26T04:07:01.821Z,3.80
2023-04-26T04:10:05.811Z,4.05
2023-04-26T04:13:07.832Z,4.15
2023-04-26T04:16:09.761Z,3.47
2023-04-26T04:19:11.659Z,4.00
2023-04-26T04:22:13.550Z,3.63
2023-04-26T04:25:16.828Z,4.00
2023-04-26T04:28:18.684Z,3.67
2023-04-26T04:31:20.506Z,4.10
2023-04-26T04:34:22.248Z,4.00
2023-04-26T04:37:23.985Z,3.47
2023-04-26T04:40:27.581Z,3.63
2023-04-26T04:43:29.208Z,3.65
2023-04-26T04:46:34.582Z,4.30
2023-04-26T04:49:36.320Z,4.03
2023-04-26T04:52:38.189Z,3.20
2023-04-26T04:55:41.526Z,4.18
2023-04-26T04:58:43.496Z,3.70
2023-04-26T05:01:46.524Z,3.47
2023-04-26T05:04:48.370Z,3.15
2023-04-26T05:07:50.064Z,3.42
2023-04-26T05:10:53.007Z,3.15
2023-04-26T05:13:55.129Z,3.13
2023-04-26T05:16:57.106Z,2.95
2023-04-26T05:19:58.800Z,3.80
2023-04-26T05:23:00.495Z,3.70
2023-04-26T05:26:04.903Z,3.30
2023-04-26T05:29:06.628Z,3.22
2023-04-26T05:32:08.498Z,3.40
2023-04-26T05:35:10.462Z,3.15
2023-04-26T05:38:12.108Z,3.55
2023-04-26T05:41:15.140Z,4.80
2023-04-26T05:44:16.900Z,3.65
2023-04-26T05:47:18.600Z,3.38
2023-04-26T05:50:21.910Z,2.80
2023-04-26T05:53:23.684Z,3.22
2023-04-26T05:56:26.729Z,3.38
2023-04-26T05:59:28.404Z,3.38
2023-04-26T06:02:30.491Z,3.60
2023-04-26T06:05:32.477Z,3.97
2023-04-26T06:08:34.381Z,3.05
2023-04-26T06:11:37.500Z,3.25
2023-04-26T06:14:39.193Z,3.50
2023-04-26T06:17:41.136Z,3.08
2023-04-26T06:20:43.112Z,3.42
2023-04-26T06:23:45.049Z,3.53
2023-04-26T06:26:48.085Z,2.90
2023-04-26T06:29:49.822Z,3.08
2023-04-26T06:32:51.555Z,4.10
2023-04-26T06:35:53.522Z,3.80
2023-04-26T06:38:55.142Z,2.67
2023-04-26T06:41:58.265Z,2.92
2023-04-26T06:45:00.216Z,3.25
2023-04-26T06:48:02.226Z,4.40
2023-04-26T06:51:07.538Z,3.20
2023-04-26T06:54:10.186Z,3.63
2023-04-26T06:57:13.464Z,3.88
2023-04-26T07:00:15.786Z,3.05
2023-04-26T07:03:17.702Z,3.00
2023-04-26T07:06:19.700Z,3.33
2023-04-26T07:09:22.674Z,3.30
2023-04-26T07:12:25.703Z,2.83
2023-04-26T07:15:28.227Z,2.75
2023-04-26T07:18:29.903Z,3.00
2023-04-26T07:21:31.598Z,2.47
2023-04-26T07:24:33.314Z,2.20
2023-04-26T07:27:36.368Z,2.40
2023-04-26T07:30:38.400Z,2.50
2023-04-26T07:33:40.416Z,2.40
2023-04-26T07:36:42.636Z,2.50
2023-04-26T07:39:44.482Z,2.70
2023-04-26T07:42:47.529Z,2.65
2023-04-26T07:45:49.326Z,2.63
2023-04-26T07:48:51.070Z,2.50
2023-04-26T07:51:52.728Z,2.63
2023-04-26T07:54:55.518Z,2.38
2023-04-26T07:57:58.509Z,2.33
2023-04-26T08:01:00.305Z,2.83
2023-04-26T08:04:02.845Z,4.15
2023-04-26T08:07:04.813Z,2.97
2023-04-26T08:10:07.326Z,2.13
2023-04-26T08:13:10.430Z,2.50
2023-04-26T08:16:12.455Z,3.03
2023-04-26T08:19:14.349Z,2.22
2023-04-26T08:22:16.043Z,2.28
2023-04-26T08:25:17.970Z,2.25
2023-04-26T08:28:20.936Z,2.88
2023-04-26T08:31:23.316Z,2.97
2023-04-26T08:34:24.999Z,2.50
2023-04-26T08:37:29.257Z,2.85
2023-04-26T08:40:31.395Z,2.38
2023-04-26T08:43:37.064Z,2.47
2023-04-26T08:46:47.512Z,2.33
2023-04-26T08:49:54.829Z,2.90
2023-04-26T08:52:56.733Z,2.63
2023-04-26T08:55:59.717Z,2.78
2023-04-26T08:59:02.961Z,1.95
2023-04-26T09:02:05.997Z,2.90
2023-04-26T09:05:08.721Z,2.35
2023-04-26T09:08:13.635Z,2.40
2023-04-26T09:11:15.599Z,2.67
2023-04-26T09:14:18.662Z,2.92
2023-04-26T09:17:31.025Z,2.47
2023-04-26T09:20:32.950Z,2.65
2023-04-26T09:23:35.389Z,2.13
2023-04-26T09:26:37.092Z,2.40
2023-04-26T09:29:41.328Z,2.55
2023-04-26T09:32:51.930Z,2.22
2023-04-26T09:35:53.913Z,3.22
2023-04-26T09:38:55.612Z,2.60
2023-04-26T09:41:57.574Z,1.98
2023-04-26T09:45:07.520Z,3.03
2023-04-26T09:48:20.268Z,2.20
2023-04-26T09:51:21.916Z,2.20
2023-04-26T09:54:38.145Z,2.30
2023-04-26T09:57:43.479Z,2.72
2023-04-26T10:00:50.063Z,2.75
2023-04-26T10:03:53.871Z,2.58
2023-04-26T10:06:55.664Z,2.40
2023-04-26T10:09:58.241Z,2.60
2023-04-26T10:13:00.547Z,2.63
2023-04-26T10:16:04.395Z,2.50
2023-04-26T10:19:07.437Z,2.38
2023-04-26T10:22:14.737Z,2.25
2023-04-26T10:25:16.425Z,2.58
2023-04-26T10:28:18.441Z,2.50
2023-04-26T10:31:21.542Z,2.35
2023-04-26T10:34:23.488Z,1.95
2023-04-26T10:37:25.232Z,2.38
2023-04-26T10:40:28.152Z,2.45
2023-04-26T10:43:30.275Z,2.45
2023-04-26T10:46:38.141Z,2.38
2023-04-26T10:49:46.881Z,2.13
2023-04-26T10:53:06.319Z,2.72
2023-04-26T10:56:08.389Z,3.08
2023-04-26T10:59:33.250Z,2.20
2023-04-26T11:02:46.274Z,2.42
2023-04-26T11:05:52.027Z,2.28
2023-04-26T11:08:53.907Z,2.10
2023-04-26T11:11:56.129Z,2.05
2023-04-26T11:15:00.207Z,2.28
2023-04-26T11:18:04.863Z,2.10
2023-04-26T11:21:07.197Z,1.85
2023-04-26T11:24:08.977Z,2.17
2023-04-26T11:27:12.005Z,2.22
2023-04-26T11:30:14.050Z,2.05
2023-04-26T11:33:20.959Z,2.10
2023-04-26T11:36:22.734Z,1.80
2023-04-26T11:39:24.510Z,2.20
2023-04-26T11:42:26.298Z,2.40
2023-04-26T11:45:28.144Z,1.90
2023-04-26T11:48:31.842Z,3.00
2023-04-26T11:51:33.928Z,2.30
2023-04-26T11:54:36.820Z,2.08
2023-04-26T11:57:39.672Z,1.95
2023-04-26T12:00:56.507Z,1.85
2023-04-26T12:04:00.378Z,2.10
2023-04-26T12:07:04.831Z,1.95
2023-04-26T12:10:16.429Z,2.08
2023-04-26T12:13:19.379Z,2.10
2023-04-26T12:16:26.876Z,2.45
2023-04-26T12:19:33.012Z,1.90
2023-04-26T12:22:34.629Z,2.08
2023-04-26T12:25:38.225Z,2.20
2023-04-26T12:28:39.953Z,1.85
2023-04-26T12:31:42.467Z,1.90
2023-04-26T12:34:45.573Z,1.90
2023-04-26T12:37:47.614Z,1.88
2023-04-26T12:40:55.776Z,1.73
2023-04-26T12:43:57.517Z,1.90
2023-04-26T12:47:10.837Z,1.80
2023-04-26T12:50:22.506Z,2.10
2023-04-26T12:53:31.013Z,2.05
2023-04-26T12:56:34.067Z,1.90
2023-04-26T12:59:36.429Z,1.65
2023-04-26T13:02:39.120Z,1.90
2023-04-26T13:05:42.288Z,1.80
2023-04-26T13:08:43.906Z,1.70
2023-04-26T13:11:45.952Z,2.30
2023-04-26T13:14:47.693Z,2.17
2023-04-26T13:17:49.403Z,1.88
2023-04-26T13:20:52.473Z,2.47
2023-04-26T13:23:54.243Z,1.80
2023-04-26T13:26:56.544Z,2.42
2023-04-26T13:29:58.568Z,1.70
2023-04-26T13:33:01.046Z,2.13
2023-04-26T13:36:04.545Z,1.92
2023-04-26T13:39:06.269Z,1.83
2023-04-26T13:42:08.229Z,1.85
2023-04-26T13:45:10.736Z,1.90
2023-04-26T13:48:12.529Z,1.90
2023-04-26T13:51:15.775Z,1.67
2023-04-26T13:54:17.848Z,1.73
2023-04-26T13:57:19.822Z,1.73
2023-04-26T14:00:22.570Z,2.88
2023-04-26T14:03:24.474Z,1.70
2023-04-26T14:06:27.663Z,1.88
2023-04-26T14:09:29.409Z,1.40
2023-04-26T14:12:31.113Z,1.92
2023-04-26T14:15:32.788Z,1.40
2023-04-26T14:18:34.586Z,2.00
2023-04-26T14:21:37.919Z,1.75
2023-04-26T14:24:39.912Z,1.80
2023-04-26T14:27:41.601Z,1.58
2023-04-26T14:30:43.725Z,2.22
2023-04-26T14:33:45.461Z,2.00
2023-04-26T14:36:48.474Z,1.80
2023-04-26T14:39:50.534Z,2.03
2023-04-26T14:42:52.194Z,1.83
2023-04-26T14:45:53.928Z,1.80
2023-04-26T14:48:55.602Z,1.70
2023-04-26T14:51:58.808Z,2.03
2023-04-26T14:55:00.769Z,2.40
2023-04-26T14:58:02.684Z,2.00
2023-04-26T15:01:04.701Z,2.55
2023-04-26T15:04:06.545Z,1.92
2023-04-26T15:07:15.286Z,1.77
2023-04-26T15:10:23.070Z,2.47
2023-04-26T15:13:24.744Z,2.13
2023-04-26T15:16:26.631Z,2.05
2023-04-26T15:19:28.581Z,1.95
2023-04-26T15:22:32.734Z,2.70
2023-04-26T15:25:35.357Z,1.95
2023-04-26T15:28:37.100Z,2.55
2023-04-26T15:31:38.797Z,1.92
2023-04-26T15:34:41.754Z,1.90
2023-04-26T15:37:45.061Z,2.20
2023-04-26T15:40:46.976Z,1.70
2023-04-26T15:43:53.349Z,2.05
2023-04-26T15:46:55.265Z,3.05
2023-04-26T15:50:01.366Z,2.28
2023-04-26T15:53:04.410Z,2.00
2023-04-26T15:56:13.922Z,1.92
2023-04-26T15:59:15.992Z,1.50
2023-04-26T16:02:17.662Z,3.30
2023-04-26T16:05:19.548Z,8.38
2023-04-26T16:08:39.525Z,2.30
2023-04-26T16:11:42.160Z,1.85
2023-04-26T16:14:43.963Z,2.30
2023-04-26T16:17:45.705Z,1.95
2023-04-26T16:20:47.506Z,2.35
2023-04-26T16:23:50.557Z,2.50
2023-04-26T16:26:52.571Z,2.05
2023-04-26T16:29:54.584Z,1.70
2023-04-26T16:32:56.673Z,2.40
2023-04-26T16:35:58.380Z,1.90
2023-04-26T16:39:01.461Z,2.40
2023-04-26T16:42:03.336Z,2.40
2023-04-26T16:45:06.159Z,1.67
2023-04-26T16:48:07.909Z,1.75
2023-04-26T16:51:09.595Z,2.13
2023-04-26T16:54:12.597Z,3.05
2023-04-26T16:57:14.350Z,1.75
2023-04-26T17:00:17.209Z,1.38
2023-04-26T17:03:19.125Z,1.80
2023-04-26T17:06:22.225Z,2.15
2023-04-26T17:09:25.311Z,2.33
2023-04-26T17:12:27.057Z,2.67
2023-04-26T17:15:28.912Z,2.20
2023-04-26T17:18:30.658Z,2.25
2023-04-26T17:21:32.943Z,2.97
2023-04-26T17:24:36.309Z,2.13
2023-04-26T17:27:38.088Z,3.20
2023-04-26T17:30:39.979Z,2.17
2023-04-26T17:33:44.270Z,2.67
2023-04-26T17:36:47.490Z,2.13
2023-04-26T17:39:51.141Z,2.30
2023-04-26T17:45:54.805Z,3.42
2023-04-26T17:48:57.495Z,5.30
2023-04-26T17:51:59.691Z,3.22
2023-04-26T17:55:03.890Z,3.00
2023-04-26T17:58:05.759Z,3.42
2023-04-26T18:01:11.111Z,2.17
2023-04-26T18:04:14.213Z,1.88
2023-04-26T18:07:16.763Z,2.67
2023-04-26T18:10:20.447Z,3.03
2023-04-26T18:13:22.379Z,2.65
2023-04-26T18:16:24.929Z,2.53
2023-04-26T18:19:27.298Z,2.00
2023-04-26T18:22:29.260Z,2.90
2023-04-26T18:25:32.765Z,2.85
2023-04-26T18:28:34.504Z,2.50
2023-04-26T18:31:39.516Z,3.25
2023-04-26T18:34:41.421Z,2.83
2023-04-26T18:37:44.930Z,2.80
2023-04-26T18:40:48.557Z,3.00
2023-04-26T18:43:50.695Z,2.70
2023-04-26T18:46:53.503Z,3.35
2023-04-26T18:49:56.068Z,4.28
2023-04-26T18:52:59.439Z,4.55
2023-04-26T18:56:04.545Z,5.78
2023-04-26T18:59:06.864Z,5.07
2023-04-26T19:02:11.873Z,3.85
2023-04-26T19:05:14.646Z,3.97
2023-04-26T19:08:17.347Z,3.97
2023-04-26T19:11:27.545Z,4.00
2023-04-26T19:20:34.736Z,3.55
2023-04-26T19:23:37.416Z,3.15
2023-04-26T19:26:41.347Z,3.22
2023-04-26T19:29:43.613Z,3.60
2023-04-26T19:32:46.325Z,3.10
2023-04-26T19:35:50.786Z,2.50
2023-04-26T19:38:53.672Z,2.60
2023-04-26T19:41:58.544Z,2.70
2023-04-26T19:45:00.850Z,2.65
2023-04-26T19:48:03.580Z,3.35
2023-04-26T19:51:06.077Z,3.40
2023-04-26T19:54:09.756Z,3.65
2023-04-26T19:57:13.933Z,4.00
2023-04-26T20:00:21.145Z,4.18
2023-04-26T20:03:24.059Z,3.25
2023-04-26T20:06:26.501Z,3.78
2023-04-26T20:09:28.510Z,3.70
2023-04-26T20:12:33.635Z,4.22
2023-04-26T20:15:35.438Z,3.85
2023-04-26T20:18:37.881Z,3.50
2023-04-26T20:21:39.854Z,4.15
2023-04-26T20:24:43.394Z,4.75
2023-04-26T20:27:48.056Z,4.88
2023-04-26T20:30:50.551Z,4.43
2023-04-26T20:33:52.575Z,4.20
2023-04-26T20:36:55.970Z,3.70
2023-04-26T20:39:58.450Z,4.05
2023-04-26T20:43:01.787Z,3.95
2023-04-26T20:46:04.191Z,4.20
2023-04-26T20:49:06.930Z,4.72
2023-04-26T20:52:09.123Z,4.30
2023-04-26T20:55:12.070Z,3.85
2023-04-26T20:58:15.126Z,5.60
2023-04-26T21:01:16.830Z,5.35
2023-04-26T21:04:18.859Z,4.68
2023-04-26T21:07:20.623Z,4.97
2023-04-26T21:10:22.284Z,4.82
2023-04-26T21:13:27.756Z,4.32
2023-04-26T21:16:29.734Z,5.40
2023-04-26T21:19:31.445Z,5.30
2023-04-26T21:22:33.132Z,3.92
2023-04-26T21:25:34.789Z,5.10
2023-04-26T21:28:37.849Z,5.05
2023-04-26T21:31:39.602Z,5.55
2023-04-26T21:34:41.346Z,5.53
2023-04-26T21:37:43.259Z,5.22
2023-04-26T21:40:45.385Z,4.95
2023-04-26T21:43:48.632Z,5.32
2023-04-26T21:46:50.298Z,5.45
2023-04-26T21:49:52.226Z,4.70
2023-04-26T21:52:54.130Z,5.18
2023-04-26T21:55:56.297Z,4.97
2023-04-26T21:58:59.344Z,6.13
2023-04-26T22:02:01.220Z,4.70
2023-04-26T22:05:02.962Z,5.13
2023-04-26T22:08:04.921Z,5.20
2023-04-26T22:11:06.663Z,5.38
2023-04-26T22:14:09.691Z,5.28
2023-04-26T22:17:11.407Z,4.47
2023-04-26T22:20:13.196Z,4.75
2023-04-26T22:23:14.902Z,4.90
2023-04-26T22:26:16.614Z,5.35
2023-04-26T22:29:19.922Z,5.03
2023-04-26T22:32:21.686Z,4.97
2023-04-26T22:35:23.584Z,4.53
2023-04-26T22:38:25.447Z,4.38
2023-04-26T22:41:27.396Z,4.15
2023-04-26T22:44:30.416Z,4.65
2023-04-26T22:47:32.458Z,4.85
2023-04-26T22:50:34.542Z,5.07
2023-04-26T22:53:36.185Z,4.78
2023-04-26T22:56:37.841Z,4.93
2023-04-26T22:59:41.083Z,4.80
2023-04-26T23:02:42.804Z,4.40
2023-04-26T23:05:44.535Z,4.85
2023-04-26T23:08:46.204Z,4.40
2023-04-26T23:11:48.386Z,4.20
2023-04-26T23:14:51.673Z,4.05
2023-04-26T23:17:53.376Z,4.25
2023-04-26T23:20:55.136Z,4.20
2023-04-26T23:23:56.950Z,3.47
2023-04-26T23:26:58.676Z,3.47
2023-04-26T23:30:02.047Z,3.20
2023-04-26T23:33:03.856Z,2.97
2023-04-26T23:36:06.416Z,3.25
2023-04-26T23:39:08.068Z,2.85
2023-04-26T23:42:09.740Z,2.80
2023-04-26T23:45:13.227Z,3.25
2023-04-26T23:48:15.219Z,3.90
2023-04-26T23:51:16.920Z,3.45
2023-04-26T23:54:18.748Z,3.15
2023-04-26T23:57:20.427Z,2.83
